Flight Track Log - Related Links

Times and Time Zones

All times are in EDT time to prevent confusion due to time zone crossing. See the CXA8547 flight status page for this flight to view local times or setup timezone preferences in your user account.

Time Position Orientation Groundspeed Altitude Reporting Facility
EDT Latitude Longitude Course Direction KTS MPH feet Rate Location/Type
Mon 05:24:00 AM 26.9688 119.9786 15° North  Level Estimated
Mon 05:25:00 AM 27.0721 120.0105 15° North  Level Estimated
Mon 05:26:00 AM 27.1754 120.0424 15° North  Level Estimated
Mon 05:27:00 AM 27.2787 120.0743 15° North  Level Estimated
Mon 05:28:00 AM 27.3821 120.1064 15° North  Level Estimated
Mon 05:29:00 AM 27.4854 120.1384 15° North  Level Estimated
Mon 05:30:00 AM 27.5887 120.1706 15° North  Level Estimated
Mon 05:31:00 AM 27.6919 120.2028 15° North  Level Estimated
Mon 05:32:00 AM 27.7952 120.2350 15° North  Level Estimated
Mon 05:33:00 AM 27.8985 120.2674 15° North  Level Estimated
Mon 05:34:00 AM 28.0018 120.2998 15° North  Level Estimated
Mon 05:35:00 AM 28.1050 120.3322 15° North  Level Estimated
Mon 05:36:00 AM 28.2083 120.3647 16° North  Level Estimated
Mon 05:37:00 AM 28.3115 120.3973 16° North  Level Estimated
Mon 05:38:00 AM 28.4148 120.4300 16° North  Level Estimated
Mon 05:39:00 AM 28.5180 120.4627 16° North  Level Estimated
Mon 05:40:00 AM 28.6212 120.4954 16° North  Level Estimated
Mon 05:41:00 AM 28.7244 120.5283 16° North  Level Estimated
Mon 05:42:00 AM 28.8276 120.5612 16° North  Level Estimated
Mon 05:43:00 AM 28.9308 120.5941 16° North  Level Estimated
Mon 05:44:00 AM 29.0340 120.6272 16° North  Level Estimated
Mon 05:45:00 AM 29.1372 120.6603 16° North  Level Estimated
Mon 05:46:00 AM 29.2404 120.6934 16° North  Level Estimated
Mon 05:47:00 AM 29.3435 120.7266 16° North  Level Estimated
Mon 05:48:00 AM 29.4467 120.7599 16° North  Level Estimated
Mon 05:49:00 AM 29.5498 120.7933 16° North  Level Estimated
Mon 05:50:00 AM 29.6530 120.8267 16° North  Level Estimated
Mon 05:51:00 AM 29.7561 120.8602 16° North  Level Estimated
Mon 05:52:00 AM 29.8592 120.8938 16° North  Level Estimated
Mon 05:53:00 AM 29.9623 120.9275 16° North  Level Estimated
Mon 05:54:00 AM 30.0654 120.9612 16° North  Level Estimated
Mon 05:55:00 AM 30.1685 120.9949 16° North  Level Estimated
Mon 05:56:00 AM 30.2716 121.0288 16° North  Level Estimated
Mon 05:57:00 AM 30.3747 121.0627 16° North  Level Estimated
Mon 05:58:00 AM 30.4778 121.0967 16° North  Level Estimated
Mon 05:59:00 AM 30.5808 121.1308 16° North  Level Estimated
Mon 06:00:00 AM 30.6839 121.1649 16° North  Level Estimated
Mon 06:01:00 AM 30.7869 121.1991 16° North  Level Estimated
Mon 06:01:42 AM 30.2366 121.2202 North 313 360 14,700  Level FlightAware ADS-B
Mon 06:02:00 AM 30.8900 121.2334 16° North  Level Estimated
Mon 06:02:12 AM 30.2811 121.2248 North 314 361 13,900  Level FlightAware ADS-B
Mon 06:02:42 AM 30.3208 121.2299 North 310 357 13,200 -1,400 Descending FlightAware ADS-B
Mon 06:03:12 AM 30.3656 121.2359 North 304 350 12,500 -1,100 Descending FlightAware ADS-B
Mon 06:03:42 AM 30.4048 121.2408 North 289 333 12,100 -800 Descending FlightAware ADS-B
Mon 06:04:12 AM 30.4468 121.2463 North 274 315 11,700 -1,000 Descending FlightAware ADS-B
Mon 06:04:42 AM 30.4844 121.2516 North 269 310 11,100 -1,180 Descending FlightAware ADS-B
Mon 06:05:13 AM 30.5212 121.2571 North 265 305 10,500 -1,200 Descending FlightAware ADS-B
Mon 06:05:37 AM 30.5516 121.2616 North 264 304 10,000 -1,385 Descending FlightAware ADS-B
Mon 06:05:52 AM 30.5694 121.2641 North 264 304 9,600 -1,400 Descending FlightAware ADS-B
Mon 06:06:07 AM 30.5880 121.2665 North 265 305 9,300 -1,355 Descending FlightAware ADS-B
Mon 06:06:23 AM 30.6069 121.2691 North 265 305 8,900 -1,304 Descending FlightAware ADS-B
Mon 06:06:53 AM 30.6423 121.2740 North 263 303 8,300 -1,220 Descending FlightAware ADS-B
Mon 06:07:22 AM 30.6793 121.2791 North 261 300 7,700 -1,067 Descending FlightAware ADS-B
Mon 06:07:38 AM 30.6974 121.2815 North 255 293 7,500 -667 Descending FlightAware ADS-B
Mon 06:08:07 AM 30.7314 121.2863 North 242 278 7,200 -818 Descending FlightAware ADS-B
Mon 06:08:22 AM 30.7483 121.2886 North 241 277 6,900 -1,200 Descending FlightAware ADS-B
Mon 06:08:37 AM 30.7650 121.2909 North 239 275 6,600 -968 Descending FlightAware ADS-B
Mon 06:08:53 AM 30.7810 121.2931 North 238 274 6,400 -913 Descending FlightAware ADS-B
Mon 06:09:23 AM 30.8140 121.2977 North 231 266 5,900 -933 Descending FlightAware ADS-B
Mon 06:09:38 AM 30.8297 121.3002 North 226 260 5,700 -955 Descending FlightAware ADS-B
Mon 06:10:07 AM 30.8597 121.3098 17° North 227 261 5,200 -800 Descending FlightAware ADS-B
Mon 06:11:23 AM 30.9312 121.3348 16° North 192 221 4,300 -686 Descending FlightAware ADS-B
Mon 06:11:52 AM 30.9554 121.3432 16° North 178 205 4,000 -682 Descending FlightAware ADS-B
Mon 06:12:07 AM 30.9675 121.3467 North 173 199 3,800 -774 Descending FlightAware ADS-B
Mon 06:12:23 AM 30.9792 121.3474 North 167 192 3,600 -774 Descending FlightAware ADS-B
Mon 06:12:38 AM 30.9908 121.3476 North 166 191 3,400 -706 Descending FlightAware ADS-B
Mon 06:12:57 AM 31.0053 121.3469 357° North 166 191 3,200 -462 Descending FlightAware ADS-B
Mon 06:13:17 AM 31.0216 121.3459 358° North 166 191 3,100 -514 Descending FlightAware ADS-B
Mon 06:13:32 AM 31.0330 121.3452 357° North 170 196 2,900 -800 Descending FlightAware ADS-B
Mon 06:13:47 AM 31.0448 121.3445 358° North 170 196 2,700 -774 Descending FlightAware ADS-B
Mon 06:14:03 AM 31.0569 121.3439 358° North 167 192 2,500 -774 Descending FlightAware ADS-B
Mon 06:14:18 AM 31.0685 121.3433 358° North 166 191 2,300 -800 Descending FlightAware ADS-B
Mon 06:14:33 AM 31.0794 121.3427 358° North 161 185 2,100 -789 Descending FlightAware ADS-B
Mon 06:14:56 AM 31.0950 121.3419 358° North 166 191 1,800 -818 Descending FlightAware ADS-B (ZSSL)
Mon 06:15:17 AM 31.1104 121.3410 359° North 145 167 1,500 -724 Descending FlightAware ADS-B (ZSSL)
Mon 06:15:54 AM 31.1350 121.3397 359° North 145 167 1,100 -649 Descending FlightAware ADS-B (ZSSL)
Mon 06:18:00 AM 31.1979 121.3363 357° North  Level Estimated
Mon 06:19:00 AM 31.1979 121.3363 North  Level Estimated
Mon 06:20:00 AM 31.1979 121.3363 North  Level Estimated
Mon 06:21:00 AM 31.1979 121.3363 North  Level Estimated

Login

Don't have an account? Register now (free) for customized features, flight alerts, and more!